sensor_id;sensor_type;location;lat;lon;timestamp;P1;durP1;ratioP1;P2;durP2;ratioP2
15833;SDS011;8017;50.812;4.934;2023-06-04T00:01:56;2.87;;;1.10;;
15833;SDS011;8017;50.812;4.934;2023-06-04T00:04:57;6.07;;;1.37;;
15833;SDS011;8017;50.812;4.934;2023-06-04T00:08:01;3.37;;;1.10;;
15833;SDS011;8017;50.812;4.934;2023-06-04T00:11:03;2.27;;;1.27;;
15833;SDS011;8017;50.812;4.934;2023-06-04T00:14:04;2.93;;;1.30;;
15833;SDS011;8017;50.812;4.934;2023-06-04T00:17:07;2.47;;;1.30;;
15833;SDS011;8017;50.812;4.934;2023-06-04T00:20:10;2.10;;;1.40;;
15833;SDS011;8017;50.812;4.934;2023-06-04T00:23:13;2.67;;;1.50;;
15833;SDS011;8017;50.812;4.934;2023-06-04T00:26:15;2.17;;;1.23;;
15833;SDS011;8017;50.812;4.934;2023-06-04T00:29:17;3.20;;;1.40;;
15833;SDS011;8017;50.812;4.934;2023-06-04T00:32:19;3.47;;;1.80;;
15833;SDS011;8017;50.812;4.934;2023-06-04T00:35:21;3.57;;;1.40;;
15833;SDS011;8017;50.812;4.934;2023-06-04T00:38:24;3.00;;;1.37;;
15833;SDS011;8017;50.812;4.934;2023-06-04T00:41:27;2.50;;;1.63;;
15833;SDS011;8017;50.812;4.934;2023-06-04T00:44:29;2.13;;;1.30;;
15833;SDS011;8017;50.812;4.934;2023-06-04T00:47:31;4.10;;;1.10;;
15833;SDS011;8017;50.812;4.934;2023-06-04T00:50:32;2.40;;;1.43;;
15833;SDS011;8017;50.812;4.934;2023-06-04T00:53:37;5.33;;;1.47;;
15833;SDS011;8017;50.812;4.934;2023-06-04T00:56:39;3.30;;;1.73;;
15833;SDS011;8017;50.812;4.934;2023-06-04T00:59:42;2.70;;;1.40;;
15833;SDS011;8017;50.812;4.934;2023-06-04T01:02:44;3.27;;;1.37;;
15833;SDS011;8017;50.812;4.934;2023-06-04T01:05:51;2.63;;;1.60;;
15833;SDS011;8017;50.812;4.934;2023-06-04T01:09:03;1.80;;;1.47;;
15833;SDS011;8017;50.812;4.934;2023-06-04T01:12:06;3.90;;;1.30;;
15833;SDS011;8017;50.812;4.934;2023-06-04T01:15:09;2.40;;;1.50;;
15833;SDS011;8017;50.812;4.934;2023-06-04T01:18:12;2.67;;;1.30;;
15833;SDS011;8017;50.812;4.934;2023-06-04T01:21:28;4.83;;;1.80;;
15833;SDS011;8017;50.812;4.934;2023-06-04T01:24:37;1.60;;;1.47;;
15833;SDS011;8017;50.812;4.934;2023-06-04T01:27:42;2.60;;;1.70;;
15833;SDS011;8017;50.812;4.934;2023-06-04T01:30:45;2.77;;;1.80;;
15833;SDS011;8017;50.812;4.934;2023-06-04T01:33:48;3.77;;;1.70;;
15833;SDS011;8017;50.812;4.934;2023-06-04T01:36:52;2.37;;;1.63;;
15833;SDS011;8017;50.812;4.934;2023-06-04T01:39:56;13.10;;;2.57;;
15833;SDS011;8017;50.812;4.934;2023-06-04T01:42:58;5.23;;;1.63;;
15833;SDS011;8017;50.812;4.934;2023-06-04T01:46:00;4.17;;;2.07;;
15833;SDS011;8017;50.812;4.934;2023-06-04T01:49:02;4.80;;;2.03;;
15833;SDS011;8017;50.812;4.934;2023-06-04T01:52:06;2.47;;;1.58;;
15833;SDS011;8017;50.812;4.934;2023-06-04T01:55:10;2.57;;;1.50;;
15833;SDS011;8017;50.812;4.934;2023-06-04T01:58:14;2.87;;;1.70;;
15833;SDS011;8017;50.812;4.934;2023-06-04T02:01:17;2.37;;;1.60;;
15833;SDS011;8017;50.812;4.934;2023-06-04T02:04:19;3.37;;;1.80;;
15833;SDS011;8017;50.812;4.934;2023-06-04T02:07:23;2.43;;;1.80;;
15833;SDS011;8017;50.812;4.934;2023-06-04T02:10:27;3.60;;;2.07;;
15833;SDS011;8017;50.812;4.934;2023-06-04T02:13:29;3.83;;;1.87;;
15833;SDS011;8017;50.812;4.934;2023-06-04T02:16:31;2.93;;;2.07;;
15833;SDS011;8017;50.812;4.934;2023-06-04T02:19:33;5.10;;;2.10;;
15833;SDS011;8017;50.812;4.934;2023-06-04T02:22:37;4.10;;;1.70;;
15833;SDS011;8017;50.812;4.934;2023-06-04T02:25:40;2.30;;;1.73;;
15833;SDS011;8017;50.812;4.934;2023-06-04T02:28:44;3.77;;;1.97;;
15833;SDS011;8017;50.812;4.934;2023-06-04T02:31:46;3.97;;;2.10;;
15833;SDS011;8017;50.812;4.934;2023-06-04T02:34:48;2.97;;;1.73;;
15833;SDS011;8017;50.812;4.934;2023-06-04T02:37:50;2.17;;;1.97;;
15833;SDS011;8017;50.812;4.934;2023-06-04T02:40:53;3.57;;;2.10;;
15833;SDS011;8017;50.812;4.934;2023-06-04T02:43:55;4.10;;;1.97;;
15833;SDS011;8017;50.812;4.934;2023-06-04T02:46:57;2.57;;;2.10;;
15833;SDS011;8017;50.812;4.934;2023-06-04T02:49:58;2.57;;;2.20;;
15833;SDS011;8017;50.812;4.934;2023-06-04T02:53:00;3.73;;;1.60;;
15833;SDS011;8017;50.812;4.934;2023-06-04T02:56:04;3.27;;;2.10;;
15833;SDS011;8017;50.812;4.934;2023-06-04T02:59:06;2.80;;;1.90;;
15833;SDS011;8017;50.812;4.934;2023-06-04T03:02:09;2.17;;;1.97;;
15833;SDS011;8017;50.812;4.934;2023-06-04T03:05:13;4.17;;;2.03;;
15833;SDS011;8017;50.812;4.934;2023-06-04T03:08:17;2.77;;;2.10;;
15833;SDS011;8017;50.812;4.934;2023-06-04T03:11:20;3.27;;;2.20;;
15833;SDS011;8017;50.812;4.934;2023-06-04T03:14:22;2.47;;;2.00;;
15833;SDS011;8017;50.812;4.934;2023-06-04T03:17:32;3.77;;;2.10;;
15833;SDS011;8017;50.812;4.934;2023-06-04T03:20:34;2.67;;;2.10;;
15833;SDS011;8017;50.812;4.934;2023-06-04T03:23:39;2.50;;;1.90;;
15833;SDS011;8017;50.812;4.934;2023-06-04T03:26:42;3.43;;;2.40;;
15833;SDS011;8017;50.812;4.934;2023-06-04T03:29:44;3.67;;;2.20;;
15833;SDS011;8017;50.812;4.934;2023-06-04T03:32:46;6.00;;;2.03;;
15833;SDS011;8017;50.812;4.934;2023-06-04T03:35:49;2.73;;;2.00;;
15833;SDS011;8017;50.812;4.934;2023-06-04T03:38:52;7.10;;;2.47;;
15833;SDS011;8017;50.812;4.934;2023-06-04T03:41:55;2.13;;;1.93;;
15833;SDS011;8017;50.812;4.934;2023-06-04T03:44:57;3.70;;;2.30;;
15833;SDS011;8017;50.812;4.934;2023-06-04T03:47:59;4.20;;;2.50;;
15833;SDS011;8017;50.812;4.934;2023-06-04T03:51:01;4.23;;;2.30;;
15833;SDS011;8017;50.812;4.934;2023-06-04T03:54:03;4.40;;;2.20;;
15833;SDS011;8017;50.812;4.934;2023-06-04T03:57:07;3.57;;;2.30;;
15833;SDS011;8017;50.812;4.934;2023-06-04T04:00:09;6.97;;;2.50;;
15833;SDS011;8017;50.812;4.934;2023-06-04T04:03:12;3.70;;;2.73;;
15833;SDS011;8017;50.812;4.934;2023-06-04T04:06:15;3.17;;;2.17;;
15833;SDS011;8017;50.812;4.934;2023-06-04T04:09:17;5.47;;;2.43;;
15833;SDS011;8017;50.812;4.934;2023-06-04T04:12:20;3.37;;;1.97;;
15833;SDS011;8017;50.812;4.934;2023-06-04T04:15:22;3.30;;;2.17;;
15833;SDS011;8017;50.812;4.934;2023-06-04T04:18:24;5.00;;;2.23;;
15833;SDS011;8017;50.812;4.934;2023-06-04T04:21:26;6.27;;;2.40;;
15833;SDS011;8017;50.812;4.934;2023-06-04T04:24:28;3.70;;;2.20;;
15833;SDS011;8017;50.812;4.934;2023-06-04T04:27:31;4.10;;;2.37;;
15833;SDS011;8017;50.812;4.934;2023-06-04T04:30:35;3.97;;;2.40;;
15833;SDS011;8017;50.812;4.934;2023-06-04T04:33:37;5.00;;;2.37;;
15833;SDS011;8017;50.812;4.934;2023-06-04T04:36:40;3.57;;;2.23;;
15833;SDS011;8017;50.812;4.934;2023-06-04T04:39:42;3.63;;;1.97;;
15833;SDS011;8017;50.812;4.934;2023-06-04T04:42:46;2.47;;;2.27;;
15833;SDS011;8017;50.812;4.934;2023-06-04T04:45:48;2.40;;;2.20;;
15833;SDS011;8017;50.812;4.934;2023-06-04T04:48:50;3.70;;;2.10;;
15833;SDS011;8017;50.812;4.934;2023-06-04T04:51:52;4.60;;;2.53;;
15833;SDS011;8017;50.812;4.934;2023-06-04T04:54:53;3.00;;;2.27;;
15833;SDS011;8017;50.812;4.934;2023-06-04T04:57:58;3.20;;;2.30;;
15833;SDS011;8017;50.812;4.934;2023-06-04T05:01:00;5.30;;;2.60;;
15833;SDS011;8017;50.812;4.934;2023-06-04T05:04:02;5.30;;;2.90;;
15833;SDS011;8017;50.812;4.934;2023-06-04T05:07:04;7.40;;;2.90;;
15833;SDS011;8017;50.812;4.934;2023-06-04T05:10:08;6.17;;;2.60;;
15833;SDS011;8017;50.812;4.934;2023-06-04T05:13:25;3.90;;;2.70;;
15833;SDS011;8017;50.812;4.934;2023-06-04T05:16:35;3.97;;;2.77;;
15833;SDS011;8017;50.812;4.934;2023-06-04T05:19:46;5.13;;;2.90;;
15833;SDS011;8017;50.812;4.934;2023-06-04T05:22:53;4.03;;;2.87;;
15833;SDS011;8017;50.812;4.934;2023-06-04T05:25:56;4.63;;;2.93;;
15833;SDS011;8017;50.812;4.934;2023-06-04T05:29:01;3.60;;;2.50;;
15833;SDS011;8017;50.812;4.934;2023-06-04T05:32:04;7.60;;;3.00;;
15833;SDS011;8017;50.812;4.934;2023-06-04T05:35:07;4.13;;;2.97;;
15833;SDS011;8017;50.812;4.934;2023-06-04T05:38:15;6.00;;;2.70;;
15833;SDS011;8017;50.812;4.934;2023-06-04T05:41:26;4.43;;;2.80;;
15833;SDS011;8017;50.812;4.934;2023-06-04T05:44:32;5.20;;;3.00;;
15833;SDS011;8017;50.812;4.934;2023-06-04T05:47:34;7.10;;;2.90;;
15833;SDS011;8017;50.812;4.934;2023-06-04T05:50:37;4.80;;;2.87;;
15833;SDS011;8017;50.812;4.934;2023-06-04T05:53:39;4.33;;;2.50;;
15833;SDS011;8017;50.812;4.934;2023-06-04T05:56:41;6.30;;;3.00;;
15833;SDS011;8017;50.812;4.934;2023-06-04T05:59:46;3.43;;;2.90;;
15833;SDS011;8017;50.812;4.934;2023-06-04T06:02:53;7.63;;;3.33;;
15833;SDS011;8017;50.812;4.934;2023-06-04T06:05:56;3.70;;;2.90;;
15833;SDS011;8017;50.812;4.934;2023-06-04T06:09:06;5.33;;;3.00;;
15833;SDS011;8017;50.812;4.934;2023-06-04T06:12:09;8.67;;;3.27;;
15833;SDS011;8017;50.812;4.934;2023-06-04T06:15:12;5.37;;;3.10;;
15833;SDS011;8017;50.812;4.934;2023-06-04T06:18:14;4.93;;;3.07;;
15833;SDS011;8017;50.812;4.934;2023-06-04T06:21:16;4.30;;;2.80;;
15833;SDS011;8017;50.812;4.934;2023-06-04T06:24:18;4.60;;;2.80;;
15833;SDS011;8017;50.812;4.934;2023-06-04T06:27:19;4.57;;;3.10;;
15833;SDS011;8017;50.812;4.934;2023-06-04T06:30:23;4.47;;;2.83;;
15833;SDS011;8017;50.812;4.934;2023-06-04T06:33:25;5.53;;;3.00;;
15833;SDS011;8017;50.812;4.934;2023-06-04T06:36:27;5.73;;;2.80;;
15833;SDS011;8017;50.812;4.934;2023-06-04T06:39:28;4.70;;;2.57;;
15833;SDS011;8017;50.812;4.934;2023-06-04T06:42:32;5.43;;;2.90;;
15833;SDS011;8017;50.812;4.934;2023-06-04T06:45:36;4.13;;;2.80;;
15833;SDS011;8017;50.812;4.934;2023-06-04T06:48:38;7.23;;;2.90;;
15833;SDS011;8017;50.812;4.934;2023-06-04T06:51:45;3.40;;;3.10;;
15833;SDS011;8017;50.812;4.934;2023-06-04T06:54:47;4.43;;;2.83;;
15833;SDS011;8017;50.812;4.934;2023-06-04T06:57:49;6.67;;;3.13;;
15833;SDS011;8017;50.812;4.934;2023-06-04T07:00:52;4.80;;;3.10;;
15833;SDS011;8017;50.812;4.934;2023-06-04T07:03:56;3.27;;;2.53;;
15833;SDS011;8017;50.812;4.934;2023-06-04T07:06:58;3.63;;;2.63;;
15833;SDS011;8017;50.812;4.934;2023-06-04T07:10:00;9.17;;;3.10;;
15833;SDS011;8017;50.812;4.934;2023-06-04T07:13:03;4.80;;;2.50;;
15833;SDS011;8017;50.812;4.934;2023-06-04T07:16:07;5.40;;;2.60;;
15833;SDS011;8017;50.812;4.934;2023-06-04T07:19:09;6.20;;;2.73;;
15833;SDS011;8017;50.812;4.934;2023-06-04T07:22:10;3.87;;;2.90;;
15833;SDS011;8017;50.812;4.934;2023-06-04T07:25:12;4.60;;;2.40;;
15833;SDS011;8017;50.812;4.934;2023-06-04T07:28:14;4.30;;;2.70;;
15833;SDS011;8017;50.812;4.934;2023-06-04T07:31:18;3.57;;;2.63;;
15833;SDS011;8017;50.812;4.934;2023-06-04T07:34:19;4.13;;;2.87;;
15833;SDS011;8017;50.812;4.934;2023-06-04T07:37:21;3.70;;;2.30;;
15833;SDS011;8017;50.812;4.934;2023-06-04T07:40:23;5.20;;;2.50;;
15833;SDS011;8017;50.812;4.934;2023-06-04T07:43:25;5.77;;;2.60;;
15833;SDS011;8017;50.812;4.934;2023-06-04T07:46:28;5.53;;;2.57;;
15833;SDS011;8017;50.812;4.934;2023-06-04T07:49:30;3.40;;;2.80;;
15833;SDS011;8017;50.812;4.934;2023-06-04T07:52:32;6.90;;;2.43;;
15833;SDS011;8017;50.812;4.934;2023-06-04T07:55:34;4.90;;;2.50;;
15833;SDS011;8017;50.812;4.934;2023-06-04T07:58:36;5.80;;;2.50;;
15833;SDS011;8017;50.812;4.934;2023-06-04T08:01:39;6.37;;;2.57;;
15833;SDS011;8017;50.812;4.934;2023-06-04T08:04:41;5.27;;;2.60;;
15833;SDS011;8017;50.812;4.934;2023-06-04T08:07:43;6.50;;;2.80;;
15833;SDS011;8017;50.812;4.934;2023-06-04T08:10:45;6.07;;;2.50;;
15833;SDS011;8017;50.812;4.934;2023-06-04T08:13:47;3.87;;;2.23;;
15833;SDS011;8017;50.812;4.934;2023-06-04T08:16:51;3.70;;;2.00;;
15833;SDS011;8017;50.812;4.934;2023-06-04T08:19:53;3.63;;;2.20;;
15833;SDS011;8017;50.812;4.934;2023-06-04T08:22:55;3.50;;;2.30;;
15833;SDS011;8017;50.812;4.934;2023-06-04T08:25:56;3.80;;;2.60;;
15833;SDS011;8017;50.812;4.934;2023-06-04T08:28:58;3.40;;;2.10;;
15833;SDS011;8017;50.812;4.934;2023-06-04T08:32:04;3.30;;;2.40;;
15833;SDS011;8017;50.812;4.934;2023-06-04T08:35:08;5.93;;;2.50;;
15833;SDS011;8017;50.812;4.934;2023-06-04T08:38:10;6.33;;;2.27;;
15833;SDS011;8017;50.812;4.934;2023-06-04T08:41:13;3.70;;;2.30;;
15833;SDS011;8017;50.812;4.934;2023-06-04T08:44:17;6.00;;;2.37;;
15833;SDS011;8017;50.812;4.934;2023-06-04T08:47:20;3.70;;;2.33;;
15833;SDS011;8017;50.812;4.934;2023-06-04T08:50:25;5.47;;;2.00;;
15833;SDS011;8017;50.812;4.934;2023-06-04T08:53:27;3.73;;;2.10;;
15833;SDS011;8017;50.812;4.934;2023-06-04T08:56:31;5.50;;;2.17;;
15833;SDS011;8017;50.812;4.934;2023-06-04T08:59:33;4.53;;;1.97;;
15833;SDS011;8017;50.812;4.934;2023-06-04T09:02:37;3.57;;;1.83;;
15833;SDS011;8017;50.812;4.934;2023-06-04T09:05:39;3.40;;;1.87;;
15833;SDS011;8017;50.812;4.934;2023-06-04T09:08:45;3.23;;;1.97;;
15833;SDS011;8017;50.812;4.934;2023-06-04T09:11:49;2.77;;;1.70;;
15833;SDS011;8017;50.812;4.934;2023-06-04T09:14:53;3.97;;;1.67;;
15833;SDS011;8017;50.812;4.934;2023-06-04T09:17:56;2.43;;;1.43;;
15833;SDS011;8017;50.812;4.934;2023-06-04T09:21:01;3.73;;;1.83;;
15833;SDS011;8017;50.812;4.934;2023-06-04T09:24:05;2.93;;;1.77;;
15833;SDS011;8017;50.812;4.934;2023-06-04T09:27:10;3.10;;;1.90;;
15833;SDS011;8017;50.812;4.934;2023-06-04T09:30:16;5.93;;;2.03;;
15833;SDS011;8017;50.812;4.934;2023-06-04T09:33:19;4.03;;;1.73;;
15833;SDS011;8017;50.812;4.934;2023-06-04T09:36:21;6.37;;;1.60;;
15833;SDS011;8017;50.812;4.934;2023-06-04T09:39:23;3.63;;;1.70;;
15833;SDS011;8017;50.812;4.934;2023-06-04T09:42:28;4.97;;;1.90;;
15833;SDS011;8017;50.812;4.934;2023-06-04T09:45:31;3.23;;;1.70;;
15833;SDS011;8017;50.812;4.934;2023-06-04T09:48:36;2.83;;;1.73;;
15833;SDS011;8017;50.812;4.934;2023-06-04T09:51:46;4.00;;;1.90;;
15833;SDS011;8017;50.812;4.934;2023-06-04T09:54:49;3.43;;;1.80;;
15833;SDS011;8017;50.812;4.934;2023-06-04T09:57:51;2.20;;;1.80;;
15833;SDS011;8017;50.812;4.934;2023-06-04T10:00:54;4.03;;;1.67;;
15833;SDS011;8017;50.812;4.934;2023-06-04T10:04:02;4.23;;;1.70;;
15833;SDS011;8017;50.812;4.934;2023-06-04T10:07:05;5.53;;;2.10;;
15833;SDS011;8017;50.812;4.934;2023-06-04T10:10:09;2.77;;;1.50;;
15833;SDS011;8017;50.812;4.934;2023-06-04T10:13:16;3.00;;;1.80;;
15833;SDS011;8017;50.812;4.934;2023-06-04T10:16:19;2.33;;;1.50;;
15833;SDS011;8017;50.812;4.934;2023-06-04T10:19:25;5.07;;;1.63;;
15833;SDS011;8017;50.812;4.934;2023-06-04T10:22:28;4.27;;;1.40;;
15833;SDS011;8017;50.812;4.934;2023-06-04T10:25:30;3.73;;;1.70;;
15833;SDS011;8017;50.812;4.934;2023-06-04T10:28:32;3.53;;;1.70;;
15833;SDS011;8017;50.812;4.934;2023-06-04T10:31:36;5.77;;;1.70;;
15833;SDS011;8017;50.812;4.934;2023-06-04T10:34:39;5.83;;;1.60;;
15833;SDS011;8017;50.812;4.934;2023-06-04T10:37:42;2.10;;;1.50;;
15833;SDS011;8017;50.812;4.934;2023-06-04T10:40:44;2.23;;;1.60;;
15833;SDS011;8017;50.812;4.934;2023-06-04T10:43:46;2.10;;;1.57;;
15833;SDS011;8017;50.812;4.934;2023-06-04T10:46:50;4.00;;;1.73;;
15833;SDS011;8017;50.812;4.934;2023-06-04T10:49:53;5.27;;;1.90;;
15833;SDS011;8017;50.812;4.934;2023-06-04T10:52:56;3.50;;;1.63;;
15833;SDS011;8017;50.812;4.934;2023-06-04T10:55:58;2.43;;;1.40;;
15833;SDS011;8017;50.812;4.934;2023-06-04T10:59:00;4.27;;;1.70;;
15833;SDS011;8017;50.812;4.934;2023-06-04T11:02:14;9.83;;;1.90;;
15833;SDS011;8017;50.812;4.934;2023-06-04T11:05:17;3.40;;;1.80;;
15833;SDS011;8017;50.812;4.934;2023-06-04T11:08:26;6.20;;;1.83;;
15833;SDS011;8017;50.812;4.934;2023-06-04T11:11:29;2.73;;;1.73;;
15833;SDS011;8017;50.812;4.934;2023-06-04T11:14:31;2.67;;;1.60;;
15833;SDS011;8017;50.812;4.934;2023-06-04T11:17:33;4.17;;;1.57;;
15833;SDS011;8017;50.812;4.934;2023-06-04T11:20:36;2.60;;;1.60;;
15833;SDS011;8017;50.812;4.934;2023-06-04T11:23:38;4.17;;;1.97;;
15833;SDS011;8017;50.812;4.934;2023-06-04T11:26:40;1.87;;;1.60;;
15833;SDS011;8017;50.812;4.934;2023-06-04T11:29:42;4.47;;;1.87;;
15833;SDS011;8017;50.812;4.934;2023-06-04T11:32:44;4.67;;;1.67;;
15833;SDS011;8017;50.812;4.934;2023-06-04T11:35:47;3.37;;;1.73;;
15833;SDS011;8017;50.812;4.934;2023-06-04T11:38:53;2.93;;;1.60;;
15833;SDS011;8017;50.812;4.934;2023-06-04T11:41:56;2.90;;;1.60;;
15833;SDS011;8017;50.812;4.934;2023-06-04T11:44:59;3.30;;;1.80;;
15833;SDS011;8017;50.812;4.934;2023-06-04T11:48:02;6.90;;;2.20;;
15833;SDS011;8017;50.812;4.934;2023-06-04T11:51:08;6.40;;;2.20;;
15833;SDS011;8017;50.812;4.934;2023-06-04T11:54:10;3.90;;;1.83;;
15833;SDS011;8017;50.812;4.934;2023-06-04T11:57:12;2.20;;;1.70;;
15833;SDS011;8017;50.812;4.934;2023-06-04T12:00:14;4.50;;;1.60;;
15833;SDS011;8017;50.812;4.934;2023-06-04T12:03:17;3.23;;;1.70;;
15833;SDS011;8017;50.812;4.934;2023-06-04T12:06:20;4.37;;;1.63;;
15833;SDS011;8017;50.812;4.934;2023-06-04T12:09:23;1.60;;;1.40;;
15833;SDS011;8017;50.812;4.934;2023-06-04T12:12:27;3.53;;;1.77;;
15833;SDS011;8017;50.812;4.934;2023-06-04T12:15:29;2.37;;;1.63;;
15833;SDS011;8017;50.812;4.934;2023-06-04T12:18:31;3.10;;;1.90;;
15833;SDS011;8017;50.812;4.934;2023-06-04T12:21:34;3.20;;;1.97;;
15833;SDS011;8017;50.812;4.934;2023-06-04T12:24:46;3.57;;;1.90;;
15833;SDS011;8017;50.812;4.934;2023-06-04T12:27:48;4.23;;;1.90;;
15833;SDS011;8017;50.812;4.934;2023-06-04T12:30:51;3.57;;;1.80;;
15833;SDS011;8017;50.812;4.934;2023-06-04T12:33:53;2.13;;;1.57;;
15833;SDS011;8017;50.812;4.934;2023-06-04T12:36:56;2.80;;;1.40;;
15833;SDS011;8017;50.812;4.934;2023-06-04T12:39:58;3.87;;;1.53;;
15833;SDS011;8017;50.812;4.934;2023-06-04T12:43:00;7.17;;;2.23;;
15833;SDS011;8017;50.812;4.934;2023-06-04T12:46:02;2.47;;;1.77;;
15833;SDS011;8017;50.812;4.934;2023-06-04T12:49:04;2.87;;;2.17;;
15833;SDS011;8017;50.812;4.934;2023-06-04T12:52:07;4.27;;;2.00;;
15833;SDS011;8017;50.812;4.934;2023-06-04T12:55:09;4.77;;;1.80;;
15833;SDS011;8017;50.812;4.934;2023-06-04T12:58:11;2.60;;;1.70;;
15833;SDS011;8017;50.812;4.934;2023-06-04T13:01:13;3.77;;;1.80;;
15833;SDS011;8017;50.812;4.934;2023-06-04T13:04:15;2.93;;;1.97;;
15833;SDS011;8017;50.812;4.934;2023-06-04T13:07:19;5.67;;;2.47;;
15833;SDS011;8017;50.812;4.934;2023-06-04T13:10:21;6.60;;;2.43;;
15833;SDS011;8017;50.812;4.934;2023-06-04T13:13:22;5.80;;;2.20;;
15833;SDS011;8017;50.812;4.934;2023-06-04T13:16:24;2.80;;;1.60;;
15833;SDS011;8017;50.812;4.934;2023-06-04T13:19:26;4.43;;;1.70;;
15833;SDS011;8017;50.812;4.934;2023-06-04T13:22:29;4.57;;;2.37;;
15833;SDS011;8017;50.812;4.934;2023-06-04T13:25:31;6.30;;;1.90;;
15833;SDS011;8017;50.812;4.934;2023-06-04T13:28:33;3.30;;;1.70;;
15833;SDS011;8017;50.812;4.934;2023-06-04T13:31:35;5.23;;;1.80;;
15833;SDS011;8017;50.812;4.934;2023-06-04T13:34:39;4.13;;;1.80;;
15833;SDS011;8017;50.812;4.934;2023-06-04T13:37:42;3.93;;;1.70;;
15833;SDS011;8017;50.812;4.934;2023-06-04T13:40:44;3.13;;;2.00;;
15833;SDS011;8017;50.812;4.934;2023-06-04T13:43:46;4.27;;;2.60;;
15833;SDS011;8017;50.812;4.934;2023-06-04T13:46:48;3.30;;;1.70;;
15833;SDS011;8017;50.812;4.934;2023-06-04T13:49:50;5.03;;;1.90;;
15833;SDS011;8017;50.812;4.934;2023-06-04T13:52:53;2.60;;;1.90;;
15833;SDS011;8017;50.812;4.934;2023-06-04T13:55:55;2.93;;;1.60;;
15833;SDS011;8017;50.812;4.934;2023-06-04T13:58:58;2.47;;;1.80;;
15833;SDS011;8017;50.812;4.934;2023-06-04T14:02:00;6.20;;;1.70;;
15833;SDS011;8017;50.812;4.934;2023-06-04T14:05:02;3.30;;;1.63;;
15833;SDS011;8017;50.812;4.934;2023-06-04T14:08:05;4.47;;;2.23;;
15833;SDS011;8017;50.812;4.934;2023-06-04T14:11:07;4.23;;;2.40;;
15833;SDS011;8017;50.812;4.934;2023-06-04T14:14:10;5.60;;;3.47;;
15833;SDS011;8017;50.812;4.934;2023-06-04T14:17:12;2.97;;;2.50;;
15833;SDS011;8017;50.812;4.934;2023-06-04T14:20:14;2.47;;;1.90;;
15833;SDS011;8017;50.812;4.934;2023-06-04T14:23:17;2.43;;;1.70;;
15833;SDS011;8017;50.812;4.934;2023-06-04T14:26:20;2.67;;;1.50;;
15833;SDS011;8017;50.812;4.934;2023-06-04T14:29:22;2.90;;;2.00;;
15833;SDS011;8017;50.812;4.934;2023-06-04T14:32:24;3.50;;;1.80;;
15833;SDS011;8017;50.812;4.934;2023-06-04T14:35:26;3.17;;;2.00;;
15833;SDS011;8017;50.812;4.934;2023-06-04T14:38:29;2.40;;;1.50;;
15833;SDS011;8017;50.812;4.934;2023-06-04T14:41:32;6.40;;;2.07;;
15833;SDS011;8017;50.812;4.934;2023-06-04T14:44:34;4.63;;;2.10;;
15833;SDS011;8017;50.812;4.934;2023-06-04T14:47:36;3.10;;;1.97;;
15833;SDS011;8017;50.812;4.934;2023-06-04T14:50:38;3.17;;;1.80;;
15833;SDS011;8017;50.812;4.934;2023-06-04T14:53:41;6.90;;;4.20;;
15833;SDS011;8017;50.812;4.934;2023-06-04T14:56:43;3.87;;;1.80;;
15833;SDS011;8017;50.812;4.934;2023-06-04T14:59:47;3.63;;;3.20;;
15833;SDS011;8017;50.812;4.934;2023-06-04T15:02:49;2.60;;;1.80;;
15833;SDS011;8017;50.812;4.934;2023-06-04T15:05:51;5.07;;;1.73;;
15833;SDS011;8017;50.812;4.934;2023-06-04T15:08:55;2.07;;;1.67;;
15833;SDS011;8017;50.812;4.934;2023-06-04T15:11:57;5.47;;;3.20;;
15833;SDS011;8017;50.812;4.934;2023-06-04T15:14:58;3.43;;;2.10;;
15833;SDS011;8017;50.812;4.934;2023-06-04T15:18:00;4.53;;;2.00;;
15833;SDS011;8017;50.812;4.934;2023-06-04T15:21:02;4.28;;;1.80;;
15833;SDS011;8017;50.812;4.934;2023-06-04T15:24:06;4.53;;;1.27;;
15833;SDS011;8017;50.812;4.934;2023-06-04T15:27:09;3.35;;;1.77;;
15833;SDS011;8017;50.812;4.934;2023-06-04T15:30:11;4.00;;;2.00;;
15833;SDS011;8017;50.812;4.934;2023-06-04T15:33:13;6.55;;;1.88;;
15833;SDS011;8017;50.812;4.934;2023-06-04T15:36:16;2.95;;;1.73;;
15833;SDS011;8017;50.812;4.934;2023-06-04T15:39:19;5.05;;;2.08;;
15833;SDS011;8017;50.812;4.934;2023-06-04T15:42:22;2.47;;;1.70;;
15833;SDS011;8017;50.812;4.934;2023-06-04T15:45:24;3.08;;;1.65;;
15833;SDS011;8017;50.812;4.934;2023-06-04T15:48:26;2.17;;;1.60;;
15833;SDS011;8017;50.812;4.934;2023-06-04T15:51:29;3.50;;;1.55;;
15833;SDS011;8017;50.812;4.934;2023-06-04T15:54:32;1.92;;;1.48;;
15833;SDS011;8017;50.812;4.934;2023-06-04T15:57:35;4.88;;;1.83;;
15833;SDS011;8017;50.812;4.934;2023-06-04T16:00:37;1.70;;;1.60;;
15833;SDS011;8017;50.812;4.934;2023-06-04T16:03:39;2.53;;;1.58;;
15833;SDS011;8017;50.812;4.934;2023-06-04T16:06:41;3.22;;;2.55;;
15833;SDS011;8017;50.812;4.934;2023-06-04T16:09:44;2.42;;;1.67;;
15833;SDS011;8017;50.812;4.934;2023-06-04T16:12:46;3.80;;;1.65;;
15833;SDS011;8017;50.812;4.934;2023-06-04T16:15:48;3.50;;;1.75;;
15833;SDS011;8017;50.812;4.934;2023-06-04T16:18:50;2.30;;;1.77;;
15833;SDS011;8017;50.812;4.934;2023-06-04T16:21:52;6.53;;;1.73;;
15833;SDS011;8017;50.812;4.934;2023-06-04T16:24:55;4.00;;;1.80;;
15833;SDS011;8017;50.812;4.934;2023-06-04T16:27:57;4.25;;;2.00;;
15833;SDS011;8017;50.812;4.934;2023-06-04T16:30:59;4.32;;;1.80;;
15833;SDS011;8017;50.812;4.934;2023-06-04T16:34:01;2.53;;;1.90;;
15833;SDS011;8017;50.812;4.934;2023-06-04T16:37:03;2.83;;;1.95;;
15833;SDS011;8017;50.812;4.934;2023-06-04T16:40:07;4.55;;;2.10;;
15833;SDS011;8017;50.812;4.934;2023-06-04T16:43:10;4.53;;;1.77;;
15833;SDS011;8017;50.812;4.934;2023-06-04T16:46:12;2.30;;;1.70;;
15833;SDS011;8017;50.812;4.934;2023-06-04T16:49:14;2.38;;;1.77;;
15833;SDS011;8017;50.812;4.934;2023-06-04T16:52:16;2.65;;;1.75;;
15833;SDS011;8017;50.812;4.934;2023-06-04T16:55:21;1.90;;;1.60;;
15833;SDS011;8017;50.812;4.934;2023-06-04T16:58:31;4.47;;;1.60;;
15833;SDS011;8017;50.812;4.934;2023-06-04T17:01:34;2.00;;;1.70;;
15833;SDS011;8017;50.812;4.934;2023-06-04T17:04:37;2.50;;;1.85;;
15833;SDS011;8017;50.812;4.934;2023-06-04T17:07:39;3.15;;;1.95;;
15833;SDS011;8017;50.812;4.934;2023-06-04T17:10:42;2.95;;;1.55;;
15833;SDS011;8017;50.812;4.934;2023-06-04T17:13:44;1.50;;;1.40;;
15833;SDS011;8017;50.812;4.934;2023-06-04T17:16:46;3.33;;;1.83;;
15833;SDS011;8017;50.812;4.934;2023-06-04T17:19:47;2.03;;;1.23;;
15833;SDS011;8017;50.812;4.934;2023-06-04T17:22:49;1.90;;;1.48;;
15833;SDS011;8017;50.812;4.934;2023-06-04T17:25:53;1.52;;;1.20;;
15833;SDS011;8017;50.812;4.934;2023-06-04T17:28:55;3.13;;;1.60;;
15833;SDS011;8017;50.812;4.934;2023-06-04T17:31:57;2.33;;;1.30;;
15833;SDS011;8017;50.812;4.934;2023-06-04T17:34:59;2.10;;;1.25;;
15833;SDS011;8017;50.812;4.934;2023-06-04T17:38:01;3.65;;;1.60;;
15833;SDS011;8017;50.812;4.934;2023-06-04T17:41:04;3.22;;;1.23;;
15833;SDS011;8017;50.812;4.934;2023-06-04T17:44:06;4.60;;;1.33;;
15833;SDS011;8017;50.812;4.934;2023-06-04T17:47:08;1.60;;;1.42;;
15833;SDS011;8017;50.812;4.934;2023-06-04T17:50:10;2.35;;;1.48;;
15833;SDS011;8017;50.812;4.934;2023-06-04T17:53:12;2.50;;;1.25;;
15833;SDS011;8017;50.812;4.934;2023-06-04T17:56:15;1.80;;;1.40;;
15833;SDS011;8017;50.812;4.934;2023-06-04T17:59:17;3.65;;;1.55;;
15833;SDS011;8017;50.812;4.934;2023-06-04T18:02:19;2.78;;;1.95;;
15833;SDS011;8017;50.812;4.934;2023-06-04T18:05:21;3.45;;;1.48;;
15833;SDS011;8017;50.812;4.934;2023-06-04T18:08:22;4.75;;;1.35;;
15833;SDS011;8017;50.812;4.934;2023-06-04T18:11:26;5.47;;;1.40;;
15833;SDS011;8017;50.812;4.934;2023-06-04T18:14:28;3.20;;;1.50;;
15833;SDS011;8017;50.812;4.934;2023-06-04T18:17:30;2.90;;;1.80;;
15833;SDS011;8017;50.812;4.934;2023-06-04T18:20:32;1.40;;;1.05;;
15833;SDS011;8017;50.812;4.934;2023-06-04T18:23:35;2.10;;;1.10;;
15833;SDS011;8017;50.812;4.934;2023-06-04T18:26:38;4.25;;;1.40;;
15833;SDS011;8017;50.812;4.934;2023-06-04T18:29:40;4.45;;;1.45;;
15833;SDS011;8017;50.812;4.934;2023-06-04T18:32:42;2.03;;;1.70;;
15833;SDS011;8017;50.812;4.934;2023-06-04T18:35:44;1.88;;;1.50;;
15833;SDS011;8017;50.812;4.934;2023-06-04T18:38:46;2.30;;;1.40;;